createdAt,value
2022-12-22T08:36:55.626Z,100.00
2022-12-22T08:39:25.195Z,100.00
2022-12-22T08:42:04.839Z,100.00
2022-12-22T08:44:46.850Z,100.00
2022-12-22T08:47:20.117Z,100.00
2022-12-22T08:49:54.678Z,100.00
2022-12-22T08:52:26.714Z,100.00
2022-12-22T08:54:55.251Z,100.00
2022-12-22T08:57:41.204Z,100.00
2022-12-22T09:00:30.553Z,100.00
2022-12-22T09:03:00.491Z,100.00
2022-12-22T09:05:33.404Z,100.00
2022-12-22T09:08:19.628Z,100.00
2022-12-22T09:10:57.777Z,100.00
2022-12-22T09:13:35.477Z,100.00
2022-12-22T09:16:20.446Z,100.00
2022-12-22T09:19:00.654Z,100.00
2022-12-22T09:21:33.226Z,100.00
2022-12-22T09:24:25.378Z,100.00
2022-12-22T09:27:04.172Z,100.00
2022-12-22T09:29:39.280Z,100.00
2022-12-22T09:32:10.637Z,100.00
2022-12-22T09:34:43.252Z,100.00
2022-12-22T09:37:13.234Z,100.00
2022-12-22T09:39:46.767Z,100.00
2022-12-22T09:42:19.964Z,100.00
2022-12-22T09:44:54.018Z,100.00
2022-12-22T09:47:29.033Z,100.00
2022-12-22T09:50:09.840Z,100.00
2022-12-22T09:52:50.238Z,100.00
2022-12-22T09:55:45.082Z,100.00
2022-12-22T09:58:25.712Z,100.00
2022-12-22T10:01:12.456Z,100.00
2022-12-22T10:03:47.170Z,100.00
2022-12-22T10:06:25.496Z,100.00
2022-12-22T10:09:05.162Z,100.00
2022-12-22T10:11:52.792Z,100.00
2022-12-22T10:14:30.579Z,100.00
2022-12-22T10:17:17.780Z,100.00
2022-12-22T10:19:54.436Z,100.00
2022-12-22T10:22:33.938Z,100.00
2022-12-22T10:25:52.430Z,100.00
2022-12-22T10:28:25.789Z,100.00
2022-12-22T10:31:48.864Z,100.00
2022-12-22T10:34:21.805Z,100.00
2022-12-22T10:36:52.900Z,100.00
2022-12-22T10:39:29.626Z,100.00
2022-12-22T10:42:05.024Z,100.00
2022-12-22T10:44:38.442Z,100.00
2022-12-22T10:47:19.059Z,100.00
2022-12-22T10:52:32.764Z,100.00
2022-12-22T10:55:18.512Z,100.00
2022-12-22T10:57:48.324Z,100.00
2022-12-22T11:00:30.993Z,100.00
2022-12-22T11:03:02.274Z,100.00
2022-12-22T11:05:38.279Z,100.00
2022-12-22T11:08:21.820Z,100.00
2022-12-22T11:10:57.284Z,100.00
2022-12-22T11:13:48.462Z,100.00
2022-12-22T11:16:33.872Z,100.00
2022-12-22T11:19:26.645Z,100.00
2022-12-22T11:22:01.442Z,100.00
2022-12-22T11:25:09.785Z,100.00
2022-12-22T11:27:51.431Z,100.00
2022-12-22T11:30:27.402Z,100.00
2022-12-22T11:33:17.656Z,100.00
2022-12-22T11:36:05.007Z,100.00
2022-12-22T11:38:46.859Z,100.00
2022-12-22T11:41:28.208Z,100.00
2022-12-22T11:44:12.609Z,100.00
2022-12-22T11:46:50.644Z,100.00
2022-12-22T11:51:01.641Z,100.00
2022-12-22T11:53:04.173Z,100.00
2022-12-22T11:55:42.308Z,100.00
2022-12-22T11:58:38.243Z,100.00
2022-12-22T12:01:33.692Z,100.00
2022-12-22T12:04:31.734Z,100.00
2022-12-22T12:07:20.544Z,100.00
2022-12-22T12:10:06.049Z,100.00
2022-12-22T12:12:43.289Z,100.00
2022-12-22T12:15:30.056Z,100.00
2022-12-22T12:18:39.076Z,100.00
2022-12-22T12:21:28.351Z,100.00
2022-12-22T12:24:14.151Z,100.00
2022-12-22T12:26:53.153Z,100.00
2022-12-22T12:29:26.952Z,100.00
2022-12-22T12:32:08.187Z,100.00
2022-12-22T12:34:43.446Z,100.00
2022-12-22T12:37:26.503Z,100.00
2022-12-22T12:40:25.594Z,100.00
2022-12-22T12:43:03.018Z,100.00
2022-12-22T12:45:39.659Z,100.00
2022-12-22T12:48:48.179Z,100.00
2022-12-22T12:51:56.092Z,100.00
2022-12-22T12:54:47.061Z,100.00
2022-12-22T12:57:52.046Z,100.00
2022-12-22T13:00:58.939Z,100.00
2022-12-22T13:06:53.575Z,100.00
2022-12-22T13:09:50.396Z,100.00
2022-12-22T13:12:37.930Z,100.00
2022-12-22T13:19:03.645Z,100.00
2022-12-22T13:21:53.504Z,100.00
2022-12-22T13:24:31.041Z,100.00
2022-12-22T13:27:07.197Z,100.00
2022-12-22T13:29:47.121Z,100.00
2022-12-22T13:32:23.902Z,100.00
2022-12-22T13:38:05.479Z,100.00
2022-12-22T13:40:44.348Z,100.00
2022-12-22T13:43:19.816Z,100.00
2022-12-22T13:45:53.193Z,100.00
2022-12-22T13:48:43.910Z,100.00
2022-12-22T13:51:35.222Z,100.00
2022-12-22T13:54:15.055Z,100.00
2022-12-22T13:56:51.910Z,100.00
2022-12-22T13:59:34.199Z,100.00
2022-12-22T14:02:05.981Z,100.00
2022-12-22T14:04:37.600Z,100.00
2022-12-22T14:07:15.910Z,100.00
2022-12-22T14:09:46.578Z,100.00
2022-12-22T14:12:25.763Z,100.00
2022-12-22T14:14:56.762Z,100.00
2022-12-22T14:17:47.897Z,100.00
2022-12-22T14:20:38.278Z,100.00
2022-12-22T14:23:20.760Z,100.00
2022-12-22T14:26:00.679Z,100.00
2022-12-22T14:28:35.343Z,100.00
2022-12-22T14:31:05.612Z,100.00
2022-12-22T14:33:45.895Z,100.00
2022-12-22T14:36:18.802Z,100.00
2022-12-22T14:38:55.889Z,100.00
2022-12-22T14:41:44.590Z,100.00
2022-12-22T14:44:22.147Z,100.00
2022-12-22T14:50:22.881Z,100.00
2022-12-22T14:53:05.079Z,100.00
2022-12-22T14:55:45.231Z,100.00
2022-12-22T14:58:20.464Z,100.00
2022-12-22T15:01:21.428Z,100.00
2022-12-22T15:04:07.898Z,100.00
2022-12-22T15:06:43.861Z,100.00
2022-12-22T15:10:13.118Z,100.00
2022-12-22T15:12:24.763Z,100.00
2022-12-22T15:14:56.628Z,100.00
2022-12-22T15:17:40.003Z,100.00
2022-12-22T15:20:33.643Z,100.00
2022-12-22T15:23:12.479Z,100.00
2022-12-22T15:25:43.406Z,100.00
2022-12-22T15:28:13.345Z,100.00
2022-12-22T15:30:58.403Z,100.00
2022-12-22T15:33:34.611Z,100.00
2022-12-22T15:36:08.613Z,100.00
2022-12-22T15:38:39.517Z,100.00
2022-12-22T15:41:11.046Z,100.00
2022-12-22T15:43:57.661Z,100.00
2022-12-22T15:46:38.866Z,100.00
2022-12-22T15:49:10.928Z,100.00
2022-12-22T15:51:42.367Z,100.00
2022-12-22T15:54:17.818Z,100.00
2022-12-22T15:56:49.655Z,100.00
2022-12-22T15:59:27.859Z,100.00
2022-12-22T16:02:11.856Z,100.00
2022-12-22T16:04:46.814Z,100.00
2022-12-22T16:07:15.788Z,100.00
2022-12-22T16:09:46.901Z,100.00
2022-12-22T16:12:24.495Z,100.00
2022-12-22T16:15:16.028Z,100.00
2022-12-22T16:17:59.780Z,100.00
2022-12-22T16:20:38.012Z,100.00
2022-12-22T16:23:16.584Z,100.00
2022-12-22T16:25:48.966Z,100.00
2022-12-22T16:28:20.992Z,100.00
2022-12-22T16:31:00.453Z,100.00
2022-12-22T16:33:38.258Z,100.00
2022-12-22T16:36:10.432Z,100.00
2022-12-22T16:38:47.665Z,100.00
2022-12-22T16:41:42.669Z,100.00
2022-12-22T16:44:31.165Z,100.00
2022-12-22T16:47:07.466Z,100.00
2022-12-22T16:49:41.373Z,100.00
2022-12-22T16:52:25.069Z,100.00
2022-12-22T16:54:55.953Z,100.00
2022-12-22T16:57:30.157Z,100.00
2022-12-22T17:00:04.208Z,100.00
2022-12-22T17:02:46.263Z,100.00
2022-12-22T17:05:31.201Z,100.00
2022-12-22T17:08:01.328Z,100.00
2022-12-22T17:10:30.993Z,100.00
2022-12-22T17:13:00.548Z,100.00
2022-12-22T17:15:33.578Z,100.00
2022-12-22T17:18:18.641Z,100.00
2022-12-22T17:20:52.790Z,100.00
2022-12-22T17:23:33.168Z,100.00
2022-12-22T17:26:13.688Z,100.00
2022-12-22T17:28:44.245Z,100.00
2022-12-22T17:34:08.411Z,100.00
2022-12-22T17:36:48.196Z,100.00
2022-12-22T17:39:30.820Z,100.00
2022-12-22T17:42:11.480Z,100.00
2022-12-22T17:44:43.922Z,100.00
2022-12-22T17:47:32.254Z,100.00
2022-12-22T17:50:17.285Z,100.00
2022-12-22T17:52:49.580Z,100.00
2022-12-22T17:56:05.278Z,100.00
2022-12-22T17:58:15.983Z,100.00
2022-12-22T18:00:52.521Z,100.00
2022-12-22T18:03:28.942Z,100.00
2022-12-22T18:06:03.910Z,100.00
2022-12-22T18:08:32.686Z,100.00
2022-12-22T18:11:11.518Z,100.00
2022-12-22T18:13:42.946Z,100.00
2022-12-22T18:16:20.322Z,100.00
2022-12-22T18:18:53.101Z,100.00
2022-12-22T18:21:35.477Z,100.00
2022-12-22T18:24:19.340Z,100.00
2022-12-22T18:26:49.588Z,100.00
2022-12-22T18:29:21.669Z,100.00
2022-12-22T18:31:50.794Z,100.00
2022-12-22T18:34:23.144Z,100.00
2022-12-22T18:37:01.652Z,100.00
2022-12-22T18:39:37.409Z,100.00
2022-12-22T18:42:24.221Z,100.00
2022-12-22T18:44:56.187Z,100.00
2022-12-22T18:47:27.432Z,100.00
2022-12-22T18:49:58.706Z,100.00
2022-12-22T18:52:33.572Z,100.00
2022-12-22T18:55:05.538Z,100.00
2022-12-22T18:57:36.858Z,100.00
2022-12-22T19:00:13.533Z,100.00
2022-12-22T19:02:47.356Z,100.00
2022-12-22T19:05:24.551Z,100.00
2022-12-22T19:08:12.931Z,100.00
2022-12-22T19:10:45.564Z,100.00
2022-12-22T19:13:33.816Z,100.00
2022-12-22T19:16:23.196Z,100.00
2022-12-22T19:18:57.189Z,100.00
2022-12-22T19:21:39.765Z,100.00
2022-12-22T19:24:27.681Z,100.00
2022-12-22T19:27:06.700Z,100.00
2022-12-22T19:29:36.278Z,100.00
2022-12-22T19:32:21.663Z,100.00
2022-12-22T19:34:53.369Z,100.00
2022-12-22T19:37:38.964Z,100.00
2022-12-22T19:43:08.783Z,100.00
2022-12-22T19:45:39.797Z,100.00
2022-12-22T19:48:24.875Z,100.00
2022-12-22T19:50:59.716Z,100.00
2022-12-22T19:53:33.342Z,100.00
2022-12-22T19:56:20.772Z,100.00
2022-12-22T19:58:59.999Z,100.00
2022-12-22T20:01:30.527Z,100.00
2022-12-22T20:04:15.806Z,100.00
2022-12-22T20:06:49.524Z,100.00
2022-12-22T20:09:25.570Z,100.00
2022-12-22T20:12:14.362Z,100.00
2022-12-22T20:14:44.708Z,100.00
2022-12-22T20:17:21.686Z,100.00
2022-12-22T20:19:52.564Z,100.00
2022-12-22T20:22:31.935Z,100.00
2022-12-22T20:25:01.966Z,100.00
2022-12-22T20:27:35.801Z,100.00
2022-12-22T20:30:21.864Z,100.00
2022-12-22T20:32:53.474Z,100.00
2022-12-22T20:35:28.111Z,100.00
2022-12-22T20:37:56.865Z,100.00
2022-12-22T20:40:36.562Z,100.00
2022-12-22T20:43:25.429Z,100.00
2022-12-22T20:46:04.290Z,100.00
2022-12-22T20:48:35.688Z,100.00
2022-12-22T20:51:07.777Z,100.00
2022-12-22T20:53:45.519Z,100.00
2022-12-22T20:56:24.506Z,100.00
2022-12-22T20:58:58.480Z,100.00
2022-12-22T21:01:38.711Z,100.00
2022-12-22T21:04:18.964Z,100.00
2022-12-22T21:07:00.628Z,100.00
2022-12-22T21:09:32.424Z,100.00
2022-12-22T21:12:03.175Z,100.00
2022-12-22T21:14:36.896Z,100.00
2022-12-22T21:17:10.163Z,99.76
2022-12-22T21:19:41.780Z,99.06
2022-12-22T21:22:11.222Z,99.94
2022-12-22T21:24:47.305Z,99.19
2022-12-22T21:27:28.506Z,98.23
2022-12-22T21:29:58.108Z,97.79
2022-12-22T21:32:29.823Z,97.15
2022-12-22T21:35:06.029Z,95.89
2022-12-22T21:37:39.836Z,95.39
2022-12-22T21:40:22.616Z,96.62
2022-12-22T21:42:53.417Z,97.53
2022-12-22T21:45:27.133Z,96.66
2022-12-22T21:47:55.987Z,96.53
2022-12-22T21:50:27.630Z,97.98
2022-12-22T21:53:03.847Z,98.14
2022-12-22T21:55:34.857Z,97.34
2022-12-22T21:58:06.336Z,98.07
2022-12-22T22:00:44.647Z,99.03
2022-12-22T22:03:16.019Z,98.72
2022-12-22T22:05:47.293Z,97.27
2022-12-22T22:08:19.377Z,95.16
2022-12-22T22:10:51.236Z,95.06
2022-12-22T22:13:22.337Z,95.60
2022-12-22T22:15:59.334Z,96.53
2022-12-22T22:18:27.708Z,97.18
2022-12-22T22:20:58.818Z,98.40
2022-12-22T22:23:37.743Z,98.89
2022-12-22T22:26:17.764Z,99.54
2022-12-22T22:28:47.260Z,99.68
2022-12-22T22:31:27.941Z,99.63
2022-12-22T22:33:58.700Z,100.00
2022-12-22T22:36:38.020Z,100.00
2022-12-22T22:39:07.540Z,100.00
2022-12-22T22:41:43.714Z,97.76
2022-12-22T22:44:14.349Z,97.14
2022-12-22T22:47:00.959Z,97.01
2022-12-22T22:49:31.133Z,97.43
2022-12-22T22:52:00.144Z,97.85
2022-12-22T22:54:29.519Z,98.90
2022-12-22T22:57:04.772Z,99.72
2022-12-22T22:59:38.768Z,100.00
2022-12-22T23:02:25.944Z,100.00
2022-12-22T23:05:04.712Z,100.00
2022-12-22T23:07:36.328Z,100.00
2022-12-22T23:10:05.572Z,100.00
2022-12-22T23:12:36.674Z,100.00
2022-12-22T23:15:07.004Z,100.00
2022-12-22T23:17:43.322Z,100.00
2022-12-22T23:20:14.471Z,100.00
2022-12-22T23:22:42.897Z,100.00
2022-12-22T23:25:16.980Z,100.00
2022-12-22T23:27:46.804Z,100.00
2022-12-22T23:30:26.744Z,100.00
2022-12-22T23:33:11.006Z,100.00
2022-12-22T23:35:49.764Z,100.00
2022-12-22T23:38:20.661Z,100.00
2022-12-22T23:40:54.402Z,100.00
2022-12-22T23:43:28.837Z,100.00
2022-12-22T23:45:58.405Z,100.00
2022-12-22T23:48:30.541Z,100.00
2022-12-22T23:51:00.142Z,100.00
2022-12-22T23:53:31.391Z,100.00
2022-12-22T23:55:59.783Z,100.00
2022-12-22T23:58:31.371Z,100.00
